Terminal Aerodrome Forecast
Issued by NWS

Home | Current Version | Previous Version | Text Only | Print | Product List | Glossary On
Versions: 1 2 3 4 5 6 7 8 9 10 11 12 13 14 15 16 17 18 19 20 21
000
FTAK31 PAFA 152320
TAFAMC
TAF
PAMC 152320Z 1600/1624 00000KT P6SM OVC070
     FM160200 VRB03KT 5SM -SN BR SCT015 OVC030
     FM160900 VRB03KT 2SM -SN BR BKN015 OVC025
     FM161100 VRB03KT 4SM -SN OVC015
     FM161800 VRB04KT P6SM SCT015 BKN050 BKN100=

USA.gov is the U.S. government's official web portal to all federal, state and local government web resources and services.